createdAt,value
2022-08-22T00:01:33.676Z,100.00
2022-08-22T00:03:16.332Z,100.00
2022-08-22T00:04:10.550Z,100.00
2022-08-22T00:06:50.777Z,100.00
2022-08-22T00:09:30.285Z,100.00
2022-08-22T00:12:09.106Z,100.00
2022-08-22T00:14:45.282Z,100.00
2022-08-22T00:17:35.580Z,100.00
2022-08-22T00:20:13.083Z,100.00
2022-08-22T00:22:51.994Z,100.00
2022-08-22T00:25:33.017Z,100.00
2022-08-22T00:28:06.247Z,100.00
2022-08-22T00:30:43.907Z,100.00
2022-08-22T00:33:23.039Z,100.00
2022-08-22T00:36:01.729Z,100.00
2022-08-22T00:38:36.899Z,100.00
2022-08-22T00:41:11.736Z,100.00
2022-08-22T00:44:15.132Z,100.00
2022-08-22T00:47:02.976Z,100.00
2022-08-22T00:50:07.162Z,100.00
2022-08-22T00:53:04.201Z,100.00
2022-08-22T00:55:51.177Z,100.00
2022-08-22T00:59:10.602Z,100.00
2022-08-22T01:01:56.455Z,100.00
2022-08-22T01:04:41.635Z,100.00
2022-08-22T01:07:24.918Z,100.00
2022-08-22T01:10:16.962Z,100.00
2022-08-22T01:13:02.818Z,100.00
2022-08-22T01:15:36.235Z,100.00
2022-08-22T01:18:44.829Z,100.00
2022-08-22T01:21:46.558Z,100.00
2022-08-22T01:25:03.731Z,100.00
2022-08-22T01:28:05.815Z,100.00
2022-08-22T01:31:21.962Z,100.00
2022-08-22T01:34:31.680Z,100.00
2022-08-22T01:37:27.081Z,100.00
2022-08-22T01:40:29.694Z,100.00
2022-08-22T01:43:09.896Z,100.00
2022-08-22T01:46:20.668Z,100.00
2022-08-22T01:48:54.704Z,100.00
2022-08-22T01:51:29.253Z,100.00
2022-08-22T01:54:03.739Z,100.00
2022-08-22T01:56:37.067Z,100.00
2022-08-22T01:59:10.938Z,100.00
2022-08-22T02:01:54.463Z,100.00
2022-08-22T02:04:38.947Z,100.00
2022-08-22T02:07:15.892Z,100.00
2022-08-22T02:09:49.930Z,100.00
2022-08-22T02:12:30.985Z,100.00
2022-08-22T02:15:08.583Z,100.00
2022-08-22T02:17:52.439Z,100.00
2022-08-22T02:20:25.730Z,100.00
2022-08-22T02:23:04.950Z,100.00
2022-08-22T02:25:36.187Z,100.00
2022-08-22T02:28:13.793Z,100.00
2022-08-22T02:30:50.052Z,100.00
2022-08-22T02:33:27.776Z,100.00
2022-08-22T02:36:02.423Z,100.00
2022-08-22T02:38:39.940Z,100.00
2022-08-22T02:41:16.419Z,100.00
2022-08-22T02:43:50.668Z,100.00
2022-08-22T02:46:28.470Z,100.00
2022-08-22T02:49:06.384Z,100.00
2022-08-22T02:51:47.818Z,100.00
2022-08-22T02:54:24.705Z,100.00
2022-08-22T02:56:58.917Z,100.00
2022-08-22T02:59:35.202Z,100.00
2022-08-22T03:02:28.908Z,100.00
2022-08-22T03:05:00.858Z,100.00
2022-08-22T03:07:38.331Z,100.00
2022-08-22T03:10:19.715Z,100.00
2022-08-22T03:12:57.674Z,100.00
2022-08-22T03:15:35.418Z,100.00
2022-08-22T03:18:07.936Z,100.00
2022-08-22T03:20:46.870Z,100.00
2022-08-22T03:23:24.096Z,100.00
2022-08-22T03:26:02.302Z,100.00
2022-08-22T03:28:39.823Z,100.00
2022-08-22T03:31:29.966Z,100.00
2022-08-22T03:34:22.917Z,100.00
2022-08-22T03:37:02.913Z,100.00
2022-08-22T03:39:46.270Z,100.00
2022-08-22T03:42:36.563Z,100.00
2022-08-22T03:45:35.167Z,100.00
2022-08-22T03:48:40.013Z,100.00
2022-08-22T03:51:34.068Z,100.00
2022-08-22T03:54:16.973Z,100.00
2022-08-22T03:57:12.205Z,100.00
2022-08-22T04:00:04.219Z,100.00
2022-08-22T04:02:53.593Z,100.00
2022-08-22T04:06:02.001Z,100.00
2022-08-22T04:08:53.375Z,100.00
2022-08-22T04:11:44.377Z,100.00
2022-08-22T04:14:39.798Z,100.00
2022-08-22T04:17:34.583Z,100.00
2022-08-22T04:20:21.978Z,100.00
2022-08-22T04:23:01.783Z,100.00
2022-08-22T04:25:36.292Z,100.00
2022-08-22T04:28:12.447Z,100.00
2022-08-22T04:30:48.151Z,100.00
2022-08-22T04:33:23.384Z,100.00
2022-08-22T04:36:03.145Z,100.00
2022-08-22T04:38:41.484Z,100.00
2022-08-22T04:41:14.150Z,100.00
2022-08-22T04:43:47.342Z,100.00
2022-08-22T04:46:23.091Z,100.00
2022-08-22T04:48:58.433Z,100.00
2022-08-22T04:51:33.186Z,100.00
2022-08-22T04:54:25.318Z,100.00
2022-08-22T04:57:14.848Z,100.00
2022-08-22T04:59:43.849Z,100.00
2022-08-22T05:02:13.974Z,100.00
2022-08-22T05:04:47.077Z,100.00
2022-08-22T05:07:19.270Z,100.00
2022-08-22T05:09:50.292Z,100.00
2022-08-22T05:12:23.884Z,100.00
2022-08-22T05:15:03.304Z,100.00
2022-08-22T05:17:33.313Z,100.00
2022-08-22T05:20:07.990Z,100.00
2022-08-22T05:22:41.757Z,100.00
2022-08-22T05:25:13.241Z,100.00
2022-08-22T05:27:53.289Z,100.00
2022-08-22T05:30:28.391Z,100.00
2022-08-22T05:33:04.042Z,100.00
2022-08-22T05:35:41.923Z,100.00
2022-08-22T05:38:19.854Z,100.00
2022-08-22T05:40:54.283Z,100.00
2022-08-22T05:43:27.841Z,100.00
2022-08-22T05:45:58.510Z,100.00
2022-08-22T05:48:34.505Z,100.00
2022-08-22T05:51:21.462Z,100.00
2022-08-22T05:53:53.866Z,100.00
2022-08-22T05:56:32.727Z,100.00
2022-08-22T05:59:09.012Z,99.15
2022-08-22T06:01:42.168Z,97.98
2022-08-22T06:04:19.429Z,96.25
2022-08-22T06:06:57.173Z,95.39
2022-08-22T06:09:34.838Z,95.41
2022-08-22T06:12:18.231Z,94.77
2022-08-22T06:15:02.626Z,94.66
2022-08-22T06:17:45.416Z,93.79
2022-08-22T06:20:49.186Z,91.66
2022-08-22T06:23:25.271Z,90.55
2022-08-22T06:25:55.314Z,92.12
2022-08-22T06:28:26.539Z,92.15
2022-08-22T06:30:57.241Z,90.89
2022-08-22T06:33:29.202Z,90.46
2022-08-22T06:36:20.513Z,90.18
2022-08-22T06:39:02.669Z,87.94
2022-08-22T06:41:34.358Z,87.35
2022-08-22T06:44:05.071Z,86.00
2022-08-22T06:46:35.841Z,83.69
2022-08-22T06:49:05.656Z,84.71
2022-08-22T06:51:36.742Z,84.39
2022-08-22T06:54:12.831Z,85.39
2022-08-22T06:56:43.154Z,85.65
2022-08-22T06:59:15.596Z,86.66
2022-08-22T07:01:49.147Z,86.62
2022-08-22T07:04:17.401Z,86.93
2022-08-22T07:06:50.155Z,86.28
2022-08-22T07:09:24.866Z,86.74
2022-08-22T07:11:54.470Z,86.53
2022-08-22T07:14:29.482Z,85.84
2022-08-22T07:17:00.016Z,84.34
2022-08-22T07:19:32.400Z,84.92
2022-08-22T07:22:11.347Z,83.86
2022-08-22T07:24:46.895Z,82.53
2022-08-22T07:27:29.160Z,82.60
2022-08-22T07:30:06.972Z,83.33
2022-08-22T07:32:46.082Z,82.50
2022-08-22T07:35:17.111Z,83.78
2022-08-22T07:37:53.953Z,82.73
2022-08-22T07:40:30.232Z,81.89
2022-08-22T07:43:04.385Z,82.95
2022-08-22T07:45:40.311Z,80.73
2022-08-22T07:48:25.847Z,80.73
2022-08-22T07:51:02.206Z,79.88
2022-08-22T07:53:39.528Z,78.07
2022-08-22T07:56:13.729Z,77.36
2022-08-22T07:58:44.012Z,76.70
2022-08-22T08:01:18.030Z,74.95
2022-08-22T08:03:54.690Z,75.88
2022-08-22T08:06:24.671Z,76.57
2022-08-22T08:08:54.076Z,76.59
2022-08-22T08:11:26.696Z,75.64
2022-08-22T08:13:59.616Z,75.36
2022-08-22T08:16:32.327Z,69.93
2022-08-22T08:19:03.006Z,72.30
2022-08-22T08:21:34.768Z,70.49
2022-08-22T08:24:04.726Z,73.10
2022-08-22T08:26:36.589Z,71.75
2022-08-22T08:29:04.482Z,73.57
2022-08-22T08:31:38.122Z,67.54
2022-08-22T08:34:16.518Z,69.58
2022-08-22T08:36:52.350Z,70.03
2022-08-22T08:39:25.206Z,70.48
2022-08-22T08:42:25.634Z,69.81
2022-08-22T08:45:23.338Z,68.05
2022-08-22T08:48:10.465Z,67.58
2022-08-22T08:51:09.254Z,68.59
2022-08-22T08:53:55.461Z,68.81
2022-08-22T08:56:33.375Z,70.59
2022-08-22T08:59:12.560Z,67.34
2022-08-22T09:02:13.618Z,68.74
2022-08-22T09:05:25.585Z,67.43
2022-08-22T09:08:12.209Z,68.16
2022-08-22T09:11:09.564Z,67.97
2022-08-22T09:13:56.044Z,69.23
2022-08-22T09:16:51.803Z,68.73
2022-08-22T09:20:02.878Z,69.21
2022-08-22T09:23:18.615Z,70.50
2022-08-22T09:25:51.278Z,71.39
2022-08-22T09:28:28.376Z,69.61
2022-08-22T09:31:47.623Z,67.02
2022-08-22T09:34:27.106Z,65.43
2022-08-22T09:37:13.982Z,67.87
2022-08-22T09:40:05.779Z,66.76
2022-08-22T09:42:46.415Z,65.69
2022-08-22T09:45:41.408Z,65.38
2022-08-22T09:48:26.680Z,66.35
2022-08-22T09:51:31.340Z,67.25
2022-08-22T09:54:23.888Z,65.98
2022-08-22T09:57:06.228Z,65.55
2022-08-22T09:59:49.154Z,67.86
2022-08-22T10:02:29.073Z,66.63
2022-08-22T10:05:04.449Z,67.49
2022-08-22T10:07:57.633Z,64.40
2022-08-22T10:10:37.210Z,62.90
2022-08-22T10:13:20.012Z,64.56
2022-08-22T10:16:00.804Z,63.84
2022-08-22T10:18:43.992Z,63.62
2022-08-22T10:21:31.704Z,64.49
2022-08-22T10:24:10.378Z,63.84
2022-08-22T10:26:48.952Z,62.86
2022-08-22T10:29:52.569Z,64.51
2022-08-22T10:32:34.684Z,65.47
2022-08-22T10:35:13.110Z,63.50
2022-08-22T10:37:55.210Z,63.37
2022-08-22T10:40:31.083Z,63.78
2022-08-22T10:43:07.379Z,64.20
2022-08-22T10:45:40.538Z,61.65
2022-08-22T10:48:29.220Z,62.83
2022-08-22T10:51:18.695Z,64.04
2022-08-22T10:54:05.533Z,63.16
2022-08-22T10:56:41.275Z,61.77
2022-08-22T10:59:30.498Z,62.92
2022-08-22T11:02:11.287Z,61.69
2022-08-22T11:05:01.212Z,61.24
2022-08-22T11:07:50.413Z,61.62
2022-08-22T11:10:28.488Z,64.75
2022-08-22T11:13:13.157Z,62.57
2022-08-22T11:16:00.554Z,63.03
2022-08-22T11:18:57.779Z,61.35
2022-08-22T11:21:46.011Z,63.02
2022-08-22T11:24:55.272Z,62.74
2022-08-22T11:27:39.912Z,61.19
2022-08-22T11:30:18.664Z,60.63
2022-08-22T11:33:15.050Z,61.32
2022-08-22T11:35:46.336Z,62.13
2022-08-22T11:38:32.476Z,60.09
2022-08-22T11:41:05.750Z,61.62
2022-08-22T11:43:47.441Z,60.77
2022-08-22T11:46:21.365Z,59.58
2022-08-22T11:49:07.382Z,60.05
2022-08-22T11:51:58.165Z,61.67
2022-08-22T11:54:38.189Z,60.90
2022-08-22T11:57:13.708Z,63.15
2022-08-22T12:00:05.793Z,61.36
2022-08-22T12:02:48.803Z,60.47
2022-08-22T12:05:24.329Z,59.69
2022-08-22T12:08:03.390Z,61.36
2022-08-22T12:10:35.398Z,60.35
2022-08-22T12:13:10.057Z,58.48
2022-08-22T12:15:47.008Z,59.12
2022-08-22T12:18:54.720Z,60.40
2022-08-22T12:21:57.520Z,60.63
2022-08-22T12:24:35.691Z,60.37
2022-08-22T12:27:29.186Z,61.48
2022-08-22T12:30:13.833Z,59.12
2022-08-22T12:33:13.218Z,61.91
2022-08-22T12:36:00.980Z,61.23
2022-08-22T12:38:51.609Z,60.74
2022-08-22T12:41:46.839Z,61.01
2022-08-22T12:44:30.891Z,59.79
2022-08-22T12:47:24.440Z,58.98
2022-08-22T12:50:17.073Z,58.95
2022-08-22T12:53:01.945Z,59.54
2022-08-22T12:55:46.990Z,59.32
2022-08-22T12:58:24.736Z,57.65
2022-08-22T13:00:53.363Z,58.54
2022-08-22T13:03:26.167Z,58.22
2022-08-22T13:05:57.028Z,58.37
2022-08-22T13:08:33.794Z,57.30
2022-08-22T13:11:10.039Z,58.35
2022-08-22T13:13:56.660Z,58.13
2022-08-22T13:16:27.937Z,59.50
2022-08-22T13:18:59.351Z,58.03
2022-08-22T13:21:34.971Z,58.88
2022-08-22T13:24:11.241Z,60.50
2022-08-22T13:26:49.277Z,58.20
2022-08-22T13:29:26.219Z,58.68
2022-08-22T13:32:00.393Z,56.78
2022-08-22T13:34:40.534Z,58.04
2022-08-22T13:37:16.442Z,58.15
2022-08-22T13:39:49.187Z,58.68
2022-08-22T13:42:30.300Z,59.89
2022-08-22T13:45:04.608Z,59.24
2022-08-22T13:47:39.422Z,61.58
2022-08-22T13:50:14.823Z,60.20
2022-08-22T13:52:52.351Z,58.66
2022-08-22T13:55:31.129Z,60.18
2022-08-22T13:58:04.689Z,61.23
2022-08-22T14:01:28.605Z,59.43
2022-08-22T14:04:00.626Z,60.82
2022-08-22T14:06:37.717Z,60.13
2022-08-22T14:09:31.389Z,58.37
2022-08-22T14:12:12.611Z,59.56
2022-08-22T14:14:45.934Z,61.07
2022-08-22T14:17:20.957Z,59.29
2022-08-22T14:20:15.035Z,59.18
2022-08-22T14:23:04.749Z,59.11
2022-08-22T14:25:38.860Z,58.94
2022-08-22T14:28:12.464Z,60.36
2022-08-22T14:30:59.340Z,60.50
2022-08-22T14:33:35.275Z,61.42
2022-08-22T14:36:11.955Z,60.88
2022-08-22T14:38:48.412Z,61.08
2022-08-22T14:41:28.574Z,61.80
2022-08-22T14:44:23.470Z,61.81
2022-08-22T14:46:58.833Z,62.62
2022-08-22T14:49:34.227Z,62.39
2022-08-22T14:52:09.819Z,61.31
2022-08-22T14:54:39.080Z,60.79
2022-08-22T14:57:20.003Z,62.52
2022-08-22T14:59:55.987Z,62.36
2022-08-22T15:02:31.704Z,62.63
2022-08-22T15:05:13.517Z,62.68
2022-08-22T15:07:41.672Z,63.69
2022-08-22T15:10:41.837Z,64.76
2022-08-22T15:13:36.956Z,65.23
2022-08-22T15:24:15.380Z,64.15
2022-08-22T15:31:14.377Z,65.04
2022-08-22T15:37:13.118Z,64.20
2022-08-22T15:40:17.362Z,64.56
2022-08-22T15:43:04.515Z,65.74
2022-08-22T15:45:38.491Z,65.12
2022-08-22T15:48:13.409Z,63.97
2022-08-22T15:50:56.134Z,64.29
2022-08-22T15:53:27.461Z,63.90
2022-08-22T15:56:23.665Z,64.26
2022-08-22T15:59:09.048Z,64.45
2022-08-22T16:01:44.856Z,65.80
2022-08-22T16:04:17.575Z,64.35
2022-08-22T16:06:49.589Z,64.01
2022-08-22T16:09:35.812Z,63.52
2022-08-22T16:12:09.978Z,62.37
2022-08-22T16:14:50.914Z,62.87
2022-08-22T16:17:43.197Z,65.13
2022-08-22T16:20:47.685Z,65.07
2022-08-22T16:23:15.505Z,66.26
2022-08-22T16:26:12.467Z,65.50
2022-08-22T16:28:58.241Z,65.85
2022-08-22T16:31:30.807Z,67.03
2022-08-22T16:34:20.208Z,66.06
2022-08-22T16:36:51.139Z,66.03
2022-08-22T16:39:38.674Z,68.12
2022-08-22T16:42:26.953Z,68.56
2022-08-22T16:45:11.694Z,67.99
2022-08-22T16:47:43.426Z,67.67
2022-08-22T16:50:40.810Z,67.77
2022-08-22T16:53:12.018Z,68.85
2022-08-22T16:55:48.992Z,70.51
2022-08-22T16:58:57.939Z,70.87
2022-08-22T17:01:44.663Z,71.53
2022-08-22T17:04:23.782Z,72.24
2022-08-22T17:12:55.901Z,71.05
2022-08-22T17:14:50.004Z,72.72
2022-08-22T17:22:03.774Z,74.00
2022-08-22T17:25:29.638Z,77.07
2022-08-22T17:28:34.328Z,80.12
2022-08-22T17:31:13.631Z,80.18
2022-08-22T17:34:02.773Z,76.94
2022-08-22T17:36:43.089Z,75.41
2022-08-22T17:39:23.207Z,76.55
2022-08-22T17:42:01.008Z,80.35
2022-08-22T17:44:40.198Z,76.98
2022-08-22T17:49:55.995Z,76.61
2022-08-22T17:52:28.980Z,75.79
2022-08-22T17:55:01.513Z,76.97
2022-08-22T17:57:34.051Z,76.00
2022-08-22T18:00:07.614Z,75.55
2022-08-22T18:02:41.980Z,74.52
2022-08-22T18:05:15.227Z,76.54
2022-08-22T18:07:54.924Z,77.08
2022-08-22T18:10:42.593Z,76.32
2022-08-22T18:13:14.918Z,78.55
2022-08-22T18:15:48.427Z,78.95
2022-08-22T18:18:30.275Z,77.96
2022-08-22T18:21:04.832Z,78.50
2022-08-22T18:23:41.913Z,77.71
2022-08-22T18:26:25.481Z,78.93
2022-08-22T18:28:58.467Z,78.72
2022-08-22T18:31:47.503Z,78.88
2022-08-22T18:34:26.172Z,78.62
2022-08-22T18:37:02.937Z,78.34
2022-08-22T18:39:39.566Z,80.56
2022-08-22T18:42:19.072Z,82.06
2022-08-22T18:44:46.746Z,82.65
2022-08-22T18:47:17.826Z,82.25
2022-08-22T18:49:54.000Z,84.34
2022-08-22T18:52:38.820Z,81.84
2022-08-22T18:55:32.436Z,81.56
2022-08-22T18:58:15.714Z,79.80
2022-08-22T19:01:05.652Z,79.96
2022-08-22T19:03:51.281Z,80.61
2022-08-22T19:06:39.883Z,81.49
2022-08-22T19:09:33.970Z,82.10
2022-08-22T19:12:15.749Z,82.16
2022-08-22T19:14:58.492Z,83.95
2022-08-22T19:17:58.743Z,82.23
2022-08-22T19:20:46.779Z,82.20
2022-08-22T19:23:43.654Z,82.92
2022-08-22T19:26:33.159Z,82.99
2022-08-22T19:29:06.666Z,83.42
2022-08-22T19:31:48.447Z,84.11
2022-08-22T19:34:37.547Z,84.08
2022-08-22T19:37:31.978Z,84.50
2022-08-22T19:40:05.326Z,84.73
2022-08-22T19:42:38.487Z,84.82
2022-08-22T19:45:21.248Z,85.20
2022-08-22T19:47:59.278Z,86.71
2022-08-22T19:50:31.508Z,88.25
2022-08-22T19:53:25.703Z,87.66
2022-08-22T19:56:08.929Z,86.60
2022-08-22T19:58:53.461Z,88.58
2022-08-22T20:01:41.561Z,88.26
2022-08-22T20:04:28.008Z,89.04
2022-08-22T20:07:04.285Z,90.31
2022-08-22T20:09:51.475Z,90.53
2022-08-22T20:12:30.887Z,90.56
2022-08-22T20:15:16.348Z,92.78
2022-08-22T20:17:44.688Z,93.51
2022-08-22T20:24:40.521Z,93.00
2022-08-22T20:27:34.995Z,93.01
2022-08-22T20:37:50.335Z,94.24
2022-08-22T20:40:54.662Z,95.46
2022-08-22T20:43:41.490Z,96.60
2022-08-22T20:46:53.147Z,97.28
2022-08-22T20:49:26.068Z,97.02
2022-08-22T20:51:57.244Z,97.63
2022-08-22T20:54:27.186Z,98.17
2022-08-22T20:56:57.639Z,98.12
2022-08-22T20:59:29.919Z,98.46
2022-08-22T21:02:05.622Z,99.29
2022-08-22T21:04:42.917Z,99.45
2022-08-22T21:07:11.676Z,99.52
2022-08-22T21:09:56.894Z,100.00
2022-08-22T21:12:26.357Z,100.00
2022-08-22T21:14:54.102Z,100.00
2022-08-22T21:17:27.114Z,100.00
2022-08-22T21:19:58.020Z,99.76
2022-08-22T21:22:29.029Z,99.24
2022-08-22T21:24:59.518Z,98.79
2022-08-22T21:27:31.336Z,98.44
2022-08-22T21:30:00.607Z,98.26
2022-08-22T21:32:34.375Z,99.03
2022-08-22T21:35:06.105Z,99.44
2022-08-22T21:37:38.483Z,99.46
2022-08-22T21:40:15.258Z,99.73
2022-08-22T21:42:46.650Z,99.92
2022-08-22T21:45:28.347Z,100.00
2022-08-22T21:47:56.805Z,100.00
2022-08-22T21:50:37.895Z,100.00
2022-08-22T21:53:10.395Z,100.00
2022-08-22T21:55:44.290Z,100.00
2022-08-22T21:58:36.477Z,100.00
2022-08-22T22:01:29.333Z,100.00
2022-08-22T22:03:58.513Z,100.00
2022-08-22T22:06:28.424Z,100.00
2022-08-22T22:08:56.147Z,100.00
2022-08-22T22:11:23.956Z,100.00
2022-08-22T22:13:51.850Z,100.00
2022-08-22T22:16:24.407Z,100.00
2022-08-22T22:18:52.225Z,100.00
2022-08-22T22:21:20.375Z,100.00
2022-08-22T22:23:50.573Z,100.00
2022-08-22T22:26:18.382Z,100.00
2022-08-22T22:28:48.370Z,100.00
2022-08-22T22:31:18.207Z,100.00
2022-08-22T22:33:46.721Z,100.00
2022-08-22T22:36:17.175Z,100.00
2022-08-22T22:38:45.579Z,100.00
2022-08-22T22:41:15.011Z,100.00
2022-08-22T22:43:43.190Z,100.00
2022-08-22T22:46:11.089Z,100.00
2022-08-22T22:48:38.829Z,100.00
2022-08-22T22:51:09.797Z,100.00
2022-08-22T22:53:42.783Z,100.00
2022-08-22T22:56:18.234Z,100.00
2022-08-22T22:58:50.085Z,100.00
2022-08-22T23:01:27.968Z,100.00
2022-08-22T23:03:57.613Z,100.00
2022-08-22T23:06:27.482Z,100.00
2022-08-22T23:08:55.849Z,100.00
2022-08-22T23:11:27.676Z,100.00
2022-08-22T23:13:56.155Z,100.00
2022-08-22T23:16:27.399Z,100.00
2022-08-22T23:18:56.306Z,100.00
2022-08-22T23:21:26.480Z,100.00
2022-08-22T23:23:56.106Z,100.00
2022-08-22T23:26:26.165Z,100.00
2022-08-22T23:28:54.086Z,100.00
2022-08-22T23:31:29.740Z,100.00
2022-08-22T23:34:01.978Z,100.00
2022-08-22T23:36:30.078Z,100.00
2022-08-22T23:38:58.423Z,100.00
2022-08-22T23:41:27.937Z,100.00
2022-08-22T23:43:56.500Z,100.00
2022-08-22T23:46:27.309Z,100.00
2022-08-22T23:48:56.121Z,100.00
2022-08-22T23:51:26.530Z,100.00
2022-08-22T23:53:56.139Z,100.00
2022-08-22T23:56:30.273Z,100.00
2022-08-22T23:58:59.119Z,100.00
